createdAt,value
2018-02-19T00:01:04.129Z,12.37
2018-02-19T00:03:32.472Z,12.37
2018-02-19T00:06:00.814Z,12.27
2018-02-19T00:08:29.183Z,12.03
2018-02-19T00:10:57.551Z,12.70
2018-02-19T00:13:25.920Z,11.30
2018-02-19T00:15:55.022Z,11.87
2018-02-19T00:18:23.472Z,11.63
2018-02-19T00:20:51.800Z,11.30
2018-02-19T00:23:20.151Z,11.93
2018-02-19T00:25:49.280Z,12.30
2018-02-19T00:28:17.656Z,11.87
2018-02-19T00:30:46.001Z,12.03
2018-02-19T00:33:15.237Z,12.20
2018-02-19T00:35:43.584Z,11.07
2018-02-19T00:38:12.681Z,12.20
2018-02-19T00:40:41.082Z,12.50
2018-02-19T00:43:09.429Z,12.13
2018-02-19T00:45:38.535Z,12.70
2018-02-19T00:48:07.635Z,13.10
2018-02-19T00:50:35.982Z,12.40
2018-02-19T00:53:04.323Z,12.17
2018-02-19T00:55:32.767Z,12.93
2018-02-19T00:58:01.994Z,12.50
2018-02-19T01:00:30.368Z,12.90
2018-02-19T01:02:58.761Z,11.90
2018-02-19T01:05:27.090Z,12.30
2018-02-19T01:07:56.304Z,11.90
2018-02-19T01:10:24.666Z,12.57
2018-02-19T01:12:53.004Z,13.17
2018-02-19T01:15:21.339Z,12.53
2018-02-19T01:17:50.436Z,12.27
2018-02-19T01:20:18.845Z,13.40
2018-02-19T01:22:47.656Z,12.53
2018-02-19T01:25:15.995Z,12.73
2018-02-19T01:27:44.341Z,13.57
2018-02-19T01:30:12.685Z,12.03
2018-02-19T01:32:41.036Z,13.23
2018-02-19T01:35:09.380Z,13.10
2018-02-19T01:37:37.751Z,12.90
2018-02-19T01:40:06.103Z,12.50
2018-02-19T01:42:34.619Z,13.53
2018-02-19T01:45:02.953Z,12.33
2018-02-19T01:47:31.343Z,12.97
2018-02-19T01:50:11.524Z,13.27
2018-02-19T01:52:39.869Z,12.20
2018-02-19T01:55:08.210Z,13.67
2018-02-19T01:57:37.517Z,13.33
2018-02-19T02:00:06.581Z,13.37
2018-02-19T02:02:35.023Z,13.17
2018-02-19T02:05:03.347Z,13.20
2018-02-19T02:07:32.784Z,12.77
2018-02-19T02:10:01.128Z,12.87
2018-02-19T02:12:29.535Z,12.67
2018-02-19T02:14:57.885Z,13.53
2018-02-19T02:17:26.224Z,14.17
2018-02-19T02:19:54.575Z,13.40
2018-02-19T02:22:22.980Z,13.30
2018-02-19T02:24:51.447Z,13.13
2018-02-19T02:27:19.824Z,13.20
2018-02-19T02:29:48.155Z,13.27
2018-02-19T02:32:16.648Z,13.33
2018-02-19T02:34:45.066Z,14.23
2018-02-19T02:37:13.441Z,13.20
2018-02-19T02:39:41.885Z,14.60
2018-02-19T02:42:10.298Z,14.07
2018-02-19T02:44:38.637Z,13.73
2018-02-19T02:47:06.976Z,14.30
2018-02-19T02:49:35.324Z,14.37
2018-02-19T02:52:03.733Z,14.83
2018-02-19T02:54:32.094Z,15.13
2018-02-19T02:57:00.449Z,13.73
2018-02-19T02:59:29.558Z,14.50
2018-02-19T03:01:57.980Z,14.43
2018-02-19T03:04:26.322Z,14.20
2018-02-19T03:06:54.658Z,13.77
2018-02-19T03:09:23.016Z,14.57
2018-02-19T03:11:51.524Z,15.47
2018-02-19T03:14:19.948Z,14.97
2018-02-19T03:16:48.284Z,14.63
2018-02-19T03:19:16.656Z,13.93
2018-02-19T03:21:44.992Z,14.87
2018-02-19T03:24:13.331Z,14.50
2018-02-19T03:26:41.688Z,15.00
2018-02-19T03:29:10.021Z,14.60
2018-02-19T03:31:38.383Z,16.43
2018-02-19T03:34:07.478Z,14.80
2018-02-19T03:36:36.693Z,15.10
2018-02-19T03:39:05.086Z,14.97
2018-02-19T03:41:33.436Z,15.60
2018-02-19T03:44:01.788Z,15.07
2018-02-19T03:46:30.140Z,15.60
2018-02-19T03:48:58.624Z,16.03
2018-02-19T03:51:26.955Z,15.83
2018-02-19T03:53:55.467Z,15.87
2018-02-19T03:56:23.802Z,15.50
2018-02-19T03:58:52.908Z,16.57
2018-02-19T04:01:22.020Z,15.03
2018-02-19T04:03:50.402Z,15.47
2018-02-19T04:06:18.743Z,15.33
2018-02-19T04:08:47.877Z,17.67
2018-02-19T04:11:16.258Z,16.67
2018-02-19T04:13:44.721Z,16.63
2018-02-19T04:16:13.821Z,15.43
2018-02-19T04:18:42.168Z,16.17
2018-02-19T04:21:10.513Z,17.17
2018-02-19T04:23:38.894Z,15.73
2018-02-19T04:26:07.244Z,16.33
2018-02-19T04:28:35.592Z,16.63
2018-02-19T04:31:04.694Z,16.33
2018-02-19T04:33:33.164Z,16.13
2018-02-19T04:36:01.828Z,15.70
2018-02-19T04:38:30.153Z,16.10
2018-02-19T04:40:59.259Z,16.77
2018-02-19T04:43:27.814Z,16.10
2018-02-19T04:46:01.898Z,16.27
2018-02-19T04:48:34.984Z,15.53
2018-02-19T04:51:03.447Z,16.43
2018-02-19T04:53:31.801Z,16.03
2018-02-19T04:56:00.188Z,16.40
2018-02-19T04:58:28.541Z,16.50
2018-02-19T05:00:57.650Z,17.23
2018-02-19T05:03:26.755Z,16.90
2018-02-19T05:05:55.145Z,16.93
2018-02-19T05:08:23.505Z,17.17
2018-02-19T05:10:51.841Z,15.93
2018-02-19T05:13:20.183Z,15.80
2018-02-19T05:15:48.665Z,16.57
2018-02-19T05:18:17.018Z,16.17
2018-02-19T05:20:46.142Z,16.27
2018-02-19T05:23:14.747Z,17.17
2018-02-19T05:25:43.091Z,15.83
2018-02-19T05:28:11.436Z,16.73
2018-02-19T05:30:40.559Z,15.73
2018-02-19T05:33:08.951Z,16.43
2018-02-19T05:35:37.337Z,16.27
2018-02-19T05:38:05.826Z,15.70
2018-02-19T05:40:34.176Z,16.43
2018-02-19T05:43:02.578Z,17.27
2018-02-19T05:45:30.902Z,16.67
2018-02-19T05:47:59.245Z,16.70
2018-02-19T05:50:27.592Z,17.47
2018-02-19T05:52:56.559Z,16.47
2018-02-19T05:55:24.905Z,17.07
2018-02-19T05:57:53.243Z,17.07
2018-02-19T06:00:21.631Z,16.87
2018-02-19T06:02:49.968Z,17.67
2018-02-19T06:05:18.500Z,16.60
2018-02-19T06:07:46.820Z,16.70
2018-02-19T06:10:15.207Z,16.83
2018-02-19T06:12:43.578Z,16.63
2018-02-19T06:15:12.022Z,18.03
2018-02-19T06:17:40.399Z,17.40
2018-02-19T06:20:08.774Z,17.27
2018-02-19T06:22:37.460Z,17.87
2018-02-19T06:25:05.818Z,17.17
2018-02-19T06:27:34.930Z,17.83
2018-02-19T06:30:03.330Z,16.90
2018-02-19T06:32:31.678Z,16.83
2018-02-19T06:35:00.805Z,16.87
2018-02-19T06:37:29.178Z,16.93
2018-02-19T06:39:57.524Z,18.13
2018-02-19T06:42:26.627Z,17.23
2018-02-19T06:44:54.963Z,17.17
2018-02-19T06:47:23.433Z,18.30
2018-02-19T06:49:51.824Z,18.07
2018-02-19T06:52:20.187Z,18.30
2018-02-19T06:54:48.540Z,17.97
2018-02-19T06:57:16.874Z,17.30
2018-02-19T06:59:45.219Z,17.20
2018-02-19T07:02:13.686Z,17.50
2018-02-19T07:04:42.015Z,17.43
2018-02-19T07:07:10.463Z,17.43
2018-02-19T07:09:38.805Z,17.43
2018-02-19T07:12:07.206Z,17.07
2018-02-19T07:14:35.564Z,17.53
2018-02-19T07:17:03.962Z,19.00
2018-02-19T07:19:32.300Z,18.73
2018-02-19T07:22:01.412Z,17.77
2018-02-19T07:24:29.749Z,17.47
2018-02-19T07:26:58.194Z,17.40
2018-02-19T07:29:26.564Z,18.90
2018-02-19T07:31:55.032Z,18.20
2018-02-19T07:34:24.140Z,18.43
2018-02-19T07:36:52.530Z,17.97
2018-02-19T07:39:20.875Z,18.20
2018-02-19T07:41:49.992Z,18.23
2018-02-19T07:44:18.394Z,16.60
2018-02-19T07:46:47.440Z,17.77
2018-02-19T07:49:15.824Z,16.53
2018-02-19T07:51:45.048Z,17.47
2018-02-19T07:54:13.415Z,17.13
2018-02-19T07:56:42.252Z,17.23
2018-02-19T07:59:10.594Z,18.37
2018-02-19T08:01:38.937Z,17.87
2018-02-19T08:04:07.365Z,18.07
2018-02-19T08:06:35.725Z,18.20
2018-02-19T08:09:04.091Z,18.97
2018-02-19T08:11:33.217Z,18.13
2018-02-19T08:14:01.701Z,17.97
2018-02-19T08:16:30.076Z,18.57
2018-02-19T08:18:58.439Z,17.40
2018-02-19T08:21:26.782Z,17.00
2018-02-19T08:23:55.221Z,17.33
2018-02-19T08:26:23.646Z,17.47
2018-02-19T08:28:52.090Z,18.47
2018-02-19T08:31:20.439Z,19.20
2018-02-19T08:33:49.541Z,18.70
2018-02-19T08:36:17.880Z,19.40
2018-02-19T08:38:46.317Z,17.50
2018-02-19T08:41:14.885Z,17.43
2018-02-19T08:43:43.298Z,18.37
2018-02-19T08:46:11.656Z,18.47
2018-02-19T08:48:40.025Z,18.23
2018-02-19T08:51:08.426Z,17.83
2018-02-19T08:53:36.891Z,18.53
2018-02-19T08:56:05.224Z,18.77
2018-02-19T08:58:33.591Z,19.23
2018-02-19T09:01:02.032Z,19.40
2018-02-19T09:03:30.494Z,18.23
2018-02-19T09:05:58.847Z,18.80
2018-02-19T09:08:27.198Z,18.83
2018-02-19T09:10:55.547Z,18.97
2018-02-19T09:13:24.019Z,18.77
2018-02-19T09:15:52.408Z,17.37
2018-02-19T09:18:21.381Z,18.87
2018-02-19T09:20:50.488Z,18.13
2018-02-19T09:23:18.843Z,17.57
2018-02-19T09:25:47.954Z,18.17
2018-02-19T09:28:16.349Z,18.50
2018-02-19T09:30:44.688Z,19.17
2018-02-19T09:33:13.039Z,18.30
2018-02-19T09:35:41.377Z,18.20
2018-02-19T09:38:09.805Z,18.57
2018-02-19T09:40:38.150Z,18.57
2018-02-19T09:43:06.485Z,17.67
2018-02-19T09:45:34.828Z,16.60
2018-02-19T09:48:03.170Z,18.03
2018-02-19T09:50:31.565Z,17.77
2018-02-19T09:52:59.985Z,17.30
2018-02-19T09:55:28.309Z,19.10
2018-02-19T09:57:56.648Z,17.93
2018-02-19T10:00:24.984Z,19.03
2018-02-19T10:02:53.320Z,18.80
2018-02-19T10:05:22.424Z,18.17
2018-02-19T10:07:51.563Z,19.03
2018-02-19T10:10:20.016Z,18.63
2018-02-19T10:12:48.296Z,18.40
2018-02-19T10:15:16.743Z,17.73
2018-02-19T10:17:45.080Z,18.87
2018-02-19T10:20:13.428Z,17.87
2018-02-19T10:22:41.836Z,18.20
2018-02-19T10:25:10.195Z,18.93
2018-02-19T10:27:38.544Z,18.80
2018-02-19T10:30:06.963Z,17.73
2018-02-19T10:32:35.356Z,18.43
2018-02-19T10:35:03.784Z,18.50
2018-02-19T10:37:32.125Z,19.07
2018-02-19T10:40:00.475Z,18.43
2018-02-19T10:42:28.852Z,18.40
2018-02-19T10:44:57.238Z,18.87
2018-02-19T10:47:25.633Z,18.80
2018-02-19T10:49:54.180Z,18.53
2018-02-19T10:52:23.285Z,20.00
2018-02-19T10:54:51.681Z,18.97
2018-02-19T10:57:20.018Z,19.50
2018-02-19T10:59:48.379Z,18.63
2018-02-19T11:02:16.815Z,18.50
2018-02-19T11:04:45.184Z,17.93
2018-02-19T11:07:13.582Z,18.87
2018-02-19T11:09:41.952Z,19.00
2018-02-19T11:12:10.392Z,20.17
2018-02-19T11:14:39.519Z,18.90
2018-02-19T11:17:08.028Z,20.10
2018-02-19T11:19:36.356Z,19.10
2018-02-19T11:22:05.475Z,18.67
2018-02-19T11:24:33.823Z,19.20
2018-02-19T11:27:02.186Z,19.63
2018-02-19T11:29:30.524Z,18.57
2018-02-19T11:31:58.860Z,18.53
2018-02-19T11:34:27.477Z,18.33
2018-02-19T11:36:56.804Z,18.37
2018-02-19T11:39:25.164Z,18.97
2018-02-19T11:41:53.496Z,18.77
2018-02-19T11:44:21.844Z,19.40
2018-02-19T11:46:50.175Z,18.53
2018-02-19T11:49:19.402Z,19.03
2018-02-19T11:51:47.745Z,18.27
2018-02-19T11:54:16.938Z,19.00
2018-02-19T11:56:46.057Z,19.03
2018-02-19T11:59:14.399Z,18.77
2018-02-19T12:01:42.755Z,18.53
2018-02-19T12:04:11.090Z,19.20
2018-02-19T12:06:39.457Z,19.03
2018-02-19T12:09:07.834Z,18.77
2018-02-19T12:11:37.069Z,17.90
2018-02-19T12:14:11.145Z,19.07
2018-02-19T12:16:40.264Z,18.53
2018-02-19T12:19:08.747Z,18.90
2018-02-19T12:21:37.152Z,19.23
2018-02-19T12:24:05.536Z,19.20
2018-02-19T12:26:33.937Z,19.17
2018-02-19T12:29:02.408Z,18.37
2018-02-19T12:31:30.728Z,17.93
2018-02-19T12:33:59.864Z,19.20
2018-02-19T12:36:28.216Z,18.17
2018-02-19T12:38:56.617Z,19.33
2018-02-19T12:41:24.965Z,18.43
2018-02-19T12:43:54.076Z,17.90
2018-02-19T12:46:22.420Z,17.83
2018-02-19T12:48:50.764Z,18.13
2018-02-19T12:51:19.099Z,18.53
2018-02-19T12:53:48.209Z,17.33
2018-02-19T12:56:16.569Z,16.83
2018-02-19T12:58:45.673Z,17.50
2018-02-19T13:01:14.069Z,17.73
2018-02-19T13:03:42.408Z,18.93
2018-02-19T13:06:10.756Z,17.77
2018-02-19T13:08:39.101Z,17.30
2018-02-19T13:11:07.434Z,18.63
2018-02-19T13:13:35.794Z,17.90
2018-02-19T13:16:04.128Z,18.10
2018-02-19T13:18:32.641Z,18.50
2018-02-19T13:21:01.000Z,17.43
2018-02-19T13:23:29.388Z,17.37
2018-02-19T13:25:57.735Z,17.80
2018-02-19T13:28:26.851Z,16.67
2018-02-19T13:30:55.232Z,17.40
2018-02-19T13:33:23.600Z,17.93
2018-02-19T13:35:51.953Z,17.07
2018-02-19T13:38:20.300Z,17.80
2018-02-19T13:40:48.709Z,17.80
2018-02-19T13:43:17.027Z,17.53
2018-02-19T13:45:45.371Z,17.23
2018-02-19T13:48:13.796Z,19.00
2018-02-19T13:50:42.127Z,19.67
2018-02-19T13:53:11.240Z,18.43
2018-02-19T13:55:40.347Z,19.03
2018-02-19T13:58:08.697Z,19.17
2018-02-19T14:00:37.124Z,18.20
2018-02-19T14:03:05.482Z,17.43
2018-02-19T14:05:34.917Z,19.07
2018-02-19T14:08:03.254Z,18.87
2018-02-19T14:10:32.375Z,18.67
2018-02-19T14:13:00.717Z,19.27
2018-02-19T14:15:29.947Z,19.60
2018-02-19T14:17:58.289Z,18.03
2018-02-19T14:20:26.653Z,18.00
2018-02-19T14:22:55.057Z,18.73
2018-02-19T14:25:23.381Z,18.27
2018-02-19T14:27:51.749Z,17.90
2018-02-19T14:30:20.093Z,19.37
2018-02-19T14:32:48.506Z,19.93
2018-02-19T14:35:16.849Z,20.80
2018-02-19T14:37:45.265Z,18.50
2018-02-19T14:40:13.612Z,19.00
2018-02-19T14:42:42.716Z,18.00
2018-02-19T14:45:11.832Z,19.10
2018-02-19T14:47:40.184Z,18.87
2018-02-19T14:50:08.550Z,18.93
2018-02-19T14:52:37.079Z,17.50
2018-02-19T14:55:05.457Z,18.00
2018-02-19T14:57:33.920Z,17.63
2018-02-19T15:00:03.036Z,17.87
2018-02-19T15:02:31.516Z,16.80
2018-02-19T15:04:59.891Z,17.50
2018-02-19T15:07:28.299Z,18.73
2018-02-19T15:09:57.282Z,18.70
2018-02-19T15:12:25.673Z,17.10
2018-02-19T15:14:54.023Z,17.67
2018-02-19T15:17:22.961Z,17.00
2018-02-19T15:19:51.334Z,17.30
2018-02-19T15:22:19.677Z,17.73
2018-02-19T15:24:48.066Z,17.87
2018-02-19T15:27:16.430Z,17.07
2018-02-19T15:29:44.985Z,16.77
2018-02-19T15:32:13.337Z,17.70
2018-02-19T15:34:41.673Z,16.70
2018-02-19T15:37:10.023Z,17.07
2018-02-19T15:39:39.118Z,18.07
2018-02-19T15:42:08.329Z,16.60
2018-02-19T15:44:36.673Z,17.07
2018-02-19T15:47:05.026Z,17.80
2018-02-19T15:49:33.365Z,16.80
2018-02-19T15:52:02.459Z,16.70
2018-02-19T15:54:30.816Z,17.07
2018-02-19T15:57:00.060Z,16.90
2018-02-19T15:59:28.490Z,17.40
2018-02-19T16:01:56.822Z,17.27
2018-02-19T16:04:25.182Z,16.80
2018-02-19T16:06:53.534Z,17.53
2018-02-19T16:09:21.905Z,16.27
2018-02-19T16:11:50.248Z,18.27
2018-02-19T16:14:18.603Z,17.37
2018-02-19T16:16:46.956Z,17.00
2018-02-19T16:19:16.060Z,17.23
2018-02-19T16:21:45.216Z,16.77
2018-02-19T16:24:13.604Z,24.47
2018-02-19T16:26:41.919Z,20.03
2018-02-19T16:29:11.027Z,17.63
2018-02-19T16:31:39.376Z,18.73
2018-02-19T16:34:08.515Z,17.97
2018-02-19T16:36:36.852Z,18.60
2018-02-19T16:39:05.217Z,17.47
2018-02-19T16:41:33.652Z,17.47
2018-02-19T16:44:02.229Z,22.07
2018-02-19T16:46:30.563Z,23.57
2018-02-19T16:48:58.896Z,21.47
2018-02-19T16:51:27.263Z,18.27
2018-02-19T16:53:55.778Z,19.23
2018-02-19T16:56:24.120Z,22.63
2018-02-19T16:58:52.617Z,20.57
2018-02-19T17:01:21.034Z,18.93
2018-02-19T17:03:49.373Z,18.83
2018-02-19T17:06:17.732Z,18.83
2018-02-19T17:08:46.077Z,20.60
2018-02-19T17:11:14.413Z,19.30
2018-02-19T17:13:42.765Z,19.63
2018-02-19T17:16:11.888Z,19.23
2018-02-19T17:18:40.262Z,19.17
2018-02-19T17:21:08.615Z,19.30
2018-02-19T17:23:37.741Z,19.83
2018-02-19T17:26:06.141Z,19.57
2018-02-19T17:28:36.213Z,18.57
2018-02-19T17:31:04.547Z,20.80
2018-02-19T17:33:32.997Z,21.80
2018-02-19T17:36:01.351Z,19.30
2018-02-19T17:38:30.452Z,19.70
2018-02-19T17:40:59.611Z,21.07
2018-02-19T17:43:27.948Z,21.83
2018-02-19T17:45:56.328Z,19.63
2018-02-19T17:48:24.665Z,20.00
2018-02-19T17:50:53.047Z,20.00
2018-02-19T17:53:21.465Z,18.97
2018-02-19T17:55:49.834Z,20.17
2018-02-19T17:58:18.343Z,19.87
2018-02-19T18:00:46.672Z,18.40
2018-02-19T18:03:15.021Z,18.97
2018-02-19T18:05:43.432Z,19.73
2018-02-19T18:08:11.794Z,19.00
2018-02-19T18:10:40.756Z,20.87
2018-02-19T18:13:09.210Z,19.13
2018-02-19T18:15:37.556Z,18.93
2018-02-19T18:18:05.973Z,19.07
2018-02-19T18:20:34.356Z,18.37
2018-02-19T18:23:02.704Z,18.17
2018-02-19T18:25:31.828Z,19.20
2018-02-19T18:28:00.178Z,19.10
2018-02-19T18:30:28.584Z,19.23
2018-02-19T18:32:56.992Z,19.83
2018-02-19T18:35:25.486Z,18.07
2018-02-19T18:37:53.831Z,20.47
2018-02-19T18:40:22.229Z,18.90
2018-02-19T18:42:50.586Z,18.83
2018-02-19T18:45:19.077Z,19.87
2018-02-19T18:47:47.427Z,19.93
2018-02-19T18:50:15.861Z,19.07
2018-02-19T18:52:44.229Z,20.87
2018-02-19T18:55:12.661Z,19.93
2018-02-19T18:57:41.034Z,20.53
2018-02-19T19:00:09.385Z,21.03
2018-02-19T19:02:37.785Z,19.93
2018-02-19T19:05:06.292Z,19.63
2018-02-19T19:07:47.922Z,19.57
2018-02-19T19:10:28.130Z,22.43
2018-02-19T19:12:57.263Z,19.53
2018-02-19T19:15:26.885Z,20.43
2018-02-19T19:17:55.561Z,19.87
2018-02-19T19:20:23.891Z,19.17
2018-02-19T19:22:53.013Z,21.23
2018-02-19T19:25:21.401Z,20.93
2018-02-19T19:27:49.740Z,19.43
2018-02-19T19:30:18.096Z,20.10
2018-02-19T19:32:46.449Z,21.47
2018-02-19T19:35:14.785Z,33.73
2018-02-19T19:37:43.934Z,24.00
2018-02-19T19:40:12.347Z,20.97
2018-02-19T19:42:40.848Z,20.73
2018-02-19T19:45:09.957Z,20.67
2018-02-19T19:47:38.329Z,21.13
2018-02-19T19:50:07.456Z,20.83
2018-02-19T19:52:35.893Z,21.73
2018-02-19T19:55:05.015Z,21.27
2018-02-19T19:57:33.397Z,21.00
2018-02-19T20:00:02.101Z,25.17
2018-02-19T20:02:30.792Z,24.43
2018-02-19T20:04:59.131Z,22.93
2018-02-19T20:07:28.374Z,22.27
2018-02-19T20:09:56.724Z,21.67
2018-02-19T20:12:25.077Z,22.07
2018-02-19T20:14:54.239Z,21.50
2018-02-19T20:17:22.592Z,22.27
2018-02-19T20:19:50.934Z,22.10
2018-02-19T20:22:20.048Z,21.43
2018-02-19T20:24:49.152Z,22.00
2018-02-19T20:27:17.520Z,21.83
2018-02-19T20:29:46.652Z,21.30
2018-02-19T20:32:14.981Z,21.43
2018-02-19T20:34:44.190Z,21.03
2018-02-19T20:37:12.599Z,22.17
2018-02-19T20:39:40.959Z,21.20
2018-02-19T20:42:09.300Z,21.43
2018-02-19T20:44:37.636Z,21.60
2018-02-19T20:47:05.997Z,22.80
2018-02-19T20:49:34.403Z,21.30
2018-02-19T20:52:03.915Z,22.20
2018-02-19T20:54:32.265Z,21.00
2018-02-19T20:57:00.621Z,21.17
2018-02-19T20:59:29.539Z,21.73
2018-02-19T21:01:57.924Z,21.93
2018-02-19T21:04:26.265Z,20.40
2018-02-19T21:06:55.383Z,20.50
2018-02-19T21:09:23.740Z,22.07
2018-02-19T21:11:52.088Z,21.77
2018-02-19T21:14:20.420Z,20.57
2018-02-19T21:16:48.832Z,21.97
2018-02-19T21:19:17.208Z,22.37
2018-02-19T21:21:45.592Z,21.27
2018-02-19T21:24:14.116Z,22.90
2018-02-19T21:26:42.452Z,22.57
2018-02-19T21:29:10.845Z,22.53
2018-02-19T21:31:39.214Z,23.30
2018-02-19T21:34:07.564Z,22.87
2018-02-19T21:36:35.909Z,22.73
2018-02-19T21:39:04.268Z,40.27
2018-02-19T21:41:32.730Z,42.90
2018-02-19T21:44:01.097Z,24.93
2018-02-19T21:46:29.483Z,23.87
2018-02-19T21:48:57.827Z,23.17
2018-02-19T21:51:26.949Z,22.40
2018-02-19T21:53:55.297Z,20.07
2018-02-19T21:56:24.612Z,22.13
2018-02-19T21:58:53.700Z,22.50
2018-02-19T22:01:22.043Z,23.20
2018-02-19T22:03:50.392Z,20.80
2018-02-19T22:06:18.724Z,22.77
2018-02-19T22:08:47.072Z,23.37
2018-02-19T22:11:15.425Z,24.20
2018-02-19T22:13:43.784Z,22.33
2018-02-19T22:16:12.145Z,23.37
2018-02-19T22:18:40.505Z,23.13
2018-02-19T22:21:09.030Z,23.23
2018-02-19T22:23:37.352Z,22.93
2018-02-19T22:26:05.697Z,22.60
2018-02-19T22:28:34.075Z,23.07
2018-02-19T22:31:02.438Z,22.30
2018-02-19T22:33:30.771Z,22.90
2018-02-19T22:35:59.124Z,23.53
2018-02-19T22:38:27.470Z,22.83
2018-02-19T22:40:55.976Z,22.03
2018-02-19T22:43:24.298Z,22.63
2018-02-19T22:45:53.419Z,23.17
2018-02-19T22:48:21.825Z,23.73
2018-02-19T22:50:50.187Z,23.73
2018-02-19T22:53:18.578Z,23.80
2018-02-19T22:55:46.929Z,24.43
2018-02-19T22:58:16.029Z,23.57
2018-02-19T23:00:45.138Z,22.53
2018-02-19T23:03:13.542Z,22.97
2018-02-19T23:05:41.917Z,22.57
2018-02-19T23:08:10.268Z,22.23
2018-02-19T23:10:38.652Z,25.10
2018-02-19T23:13:07.163Z,21.43
2018-02-19T23:15:35.474Z,24.00
2018-02-19T23:18:03.828Z,25.00
2018-02-19T23:20:32.196Z,23.60
2018-02-19T23:23:00.565Z,23.93
2018-02-19T23:25:28.926Z,23.40
2018-02-19T23:27:58.067Z,24.03
2018-02-19T23:30:26.401Z,25.50
2018-02-19T23:32:54.730Z,25.83
2018-02-19T23:35:23.090Z,25.73
2018-02-19T23:37:51.413Z,25.57
2018-02-19T23:40:20.557Z,25.90
2018-02-19T23:42:48.924Z,25.33
2018-02-19T23:45:17.414Z,26.20
2018-02-19T23:47:45.784Z,28.23
2018-02-19T23:50:14.135Z,27.43
2018-02-19T23:52:43.239Z,26.37
2018-02-19T23:55:12.480Z,31.83
2018-02-19T23:57:41.252Z,38.60
